Time;durP1;ratioP1;P1;durP2;ratioP2;P2;SDS_P1;SDS_P2;PMS_P1;PMS_P2;Temp;Humidity;BMP_temperature;BMP_pressure;BME280_temperature;BME280_humidity;BME280_pressure;Samples;Min_cycle;Max_cycle;Signal;HPM_P1;HPM_P2
2024/04/14 00:00:44;;;;;;;5.93;1.02;;;;;;;-146.25;100.00;52354.00;2211340;26;23078;-66
2024/04/14 00:01:46;;;;;;;3.85;0.80;;;;;;;-146.25;100.00;52341.84;2211598;26;31657;-67
2024/04/14 00:02:50;;;;;;;6.57;1.13;;;;;;;-146.25;100.00;52329.66;2211013;26;32455;-67
2024/04/14 00:03:57;;;;;;;5.28;1.23;;;;;;;-146.25;100.00;52343.88;2211235;26;34624;-67
2024/04/14 00:04:59;;;;;;;8.88;1.50;;;;;;;-146.25;100.00;52366.16;2210497;26;31173;-66
2024/04/14 00:06:03;;;;;;;5.22;1.30;;;;;;;-146.25;100.00;52313.44;2211964;26;21139;-68
2024/04/14 00:07:05;;;;;;;4.03;1.15;;;;;;;-146.25;100.00;52331.69;2210979;26;34506;-67
2024/04/14 00:08:07;;;;;;;4.90;1.25;;;;;;;-146.25;100.00;52303.31;2211682;26;35630;-67
2024/04/14 00:09:11;;;;;;;7.05;1.00;;;;;;;-146.25;100.00;52315.47;2210774;26;34300;-67
2024/04/14 00:10:13;;;;;;;5.15;0.90;;;;;;;-146.25;100.00;52323.59;2211444;26;31387;-68
2024/04/14 00:11:15;;;;;;;6.35;1.02;;;;;;;-146.25;100.00;52325.63;2210724;26;35709;-68
2024/04/14 00:12:17;;;;;;;6.18;1.00;;;;;;;-146.25;100.00;52333.72;2211986;26;20154;-67
2024/04/14 00:13:19;;;;;;;5.30;1.08;;;;;;;-146.25;100.00;52325.63;2211504;26;20141;-67
2024/04/14 00:14:23;;;;;;;6.03;0.98;;;;;;;-146.25;100.00;52325.63;2211467;26;26401;-69
2024/04/14 00:15:25;;;;;;;5.82;1.13;;;;;;;-146.25;100.00;52331.69;2210706;26;34503;-67
2024/04/14 00:16:29;;;;;;;6.35;1.20;;;;;;;-146.25;100.00;52305.34;2211460;26;29016;-67
2024/04/14 00:17:31;;;;;;;6.28;1.10;;;;;;;-146.25;100.00;52315.47;2210789;26;35411;-67
2024/04/14 00:18:33;;;;;;;8.07;1.15;;;;;;;-146.25;100.00;52327.66;2211949;26;20016;-68
2024/04/14 00:19:36;;;;;;;7.55;0.98;;;;;;;-146.25;100.00;52297.22;2211401;26;20012;-68
2024/04/14 00:20:38;;;;;;;5.38;1.25;;;;;;;-146.25;100.00;52317.50;2210976;26;34316;-68
2024/04/14 00:21:40;;;;;;;7.80;1.27;;;;;;;-146.25;100.00;52311.44;2210768;26;34547;-67
2024/04/14 00:22:45;;;;;;;7.57;1.20;;;;;;;-146.25;100.00;52343.88;2211240;26;36935;-68
2024/04/14 00:23:48;;;;;;;5.18;1.05;;;;;;;-146.25;100.00;52325.63;2211516;26;20016;-67
2024/04/14 00:24:50;;;;;;;4.13;0.90;;;;;;;-146.25;100.00;52372.25;2211098;26;34765;-68
2024/04/14 00:25:54;;;;;;;9.35;1.20;;;;;;;-146.25;100.00;52376.31;2210917;26;34645;-68
2024/04/14 00:26:56;;;;;;;5.15;1.27;;;;;;;-146.25;100.00;52327.66;2211271;26;33219;-68
2024/04/14 00:28:00;;;;;;;6.47;1.13;;;;;;;-146.25;100.00;52333.72;2211478;26;20009;-68
2024/04/14 00:29:02;;;;;;;5.80;1.40;;;;;;;-146.25;100.00;52335.75;2212017;26;20012;-68
2024/04/14 00:30:04;;;;;;;4.07;1.20;;;;;;;-146.25;100.00;52331.69;2211212;26;30956;-68
2024/04/14 00:31:07;;;;;;;4.93;1.02;;;;;;;-146.25;100.00;52325.63;2211892;26;20005;-67
2024/04/14 00:32:09;;;;;;;4.70;0.95;;;;;;;-146.25;100.00;52287.09;2210843;26;32737;-67
2024/04/14 00:33:11;;;;;;;6.60;1.20;;;;;;;-146.25;100.00;52309.41;2212024;26;21024;-68
2024/04/14 00:34:12;;;;;;;6.45;0.88;;;;;;;-146.25;100.00;52319.53;2210759;26;33389;-68
2024/04/14 00:35:14;;;;;;;7.03;1.40;;;;;;;-146.25;100.00;52323.59;2210792;26;32724;-67
2024/04/14 00:36:16;;;;;;;6.95;1.40;;;;;;;-146.25;100.00;52339.81;2210721;26;34889;-67
2024/04/14 00:37:18;;;;;;;9.23;1.40;;;;;;;-146.25;100.00;52307.38;2224988;26;31702;-68
2024/04/14 00:38:20;;;;;;;4.53;1.30;;;;;;;-146.25;100.00;52301.28;2224828;26;20019;-67
2024/04/14 00:39:22;;;;;;;8.00;1.13;;;;;;;-146.25;100.00;52364.13;2210327;26;37638;-68
2024/04/14 00:40:24;;;;;;;7.40;1.20;;;;;;;-146.25;100.00;52345.91;2210867;26;32963;-67
2024/04/14 00:41:26;;;;;;;6.75;1.40;;;;;;;-146.25;100.00;52303.31;2211165;26;34176;-67
2024/04/14 00:42:29;;;;;;;6.53;1.23;;;;;;;-146.25;100.00;52333.72;2211509;26;20013;-68
2024/04/14 00:43:31;;;;;;;8.57;1.40;;;;;;;-146.25;100.00;52349.94;2211778;26;20012;-66
2024/04/14 00:44:34;;;;;;;11.93;1.55;;;;;;;-146.25;100.00;52356.03;2211296;26;20012;-68
2024/04/14 00:45:36;;;;;;;8.25;1.77;;;;;;;-146.25;100.00;52345.91;2211158;26;33057;-68
2024/04/14 00:46:40;;;;;;;7.97;1.55;;;;;;;-146.25;100.00;52343.88;2209901;26;33308;-68
2024/04/14 00:47:43;;;;;;;7.95;1.50;;;;;;;-146.25;100.00;52331.69;2210507;26;29690;-68
2024/04/14 00:48:45;;;;;;;8.65;1.55;;;;;;;-146.25;100.00;52337.78;2210469;26;21043;-67
2024/04/14 00:49:48;;;;;;;6.30;1.63;;;;;;;-146.25;100.00;52331.69;2210067;26;32115;-68
2024/04/14 00:50:50;;;;;;;7.22;2.28;;;;;;;-146.25;100.00;52329.66;2209787;26;32328;-67
2024/04/14 00:51:53;;;;;;;5.80;1.63;;;;;;;-146.25;100.00;52345.91;2210546;26;30166;-68
2024/04/14 00:52:55;;;;;;;9.23;1.60;;;;;;;-146.25;100.00;52384.41;2210290;26;30266;-67
2024/04/14 00:53:57;;;;;;;8.30;1.58;;;;;;;-146.25;100.00;52333.72;2211026;26;20786;-68
2024/04/14 00:54:59;;;;;;;8.75;1.73;;;;;;;-146.25;100.00;52376.31;2209744;26;29903;-67
2024/04/14 00:56:03;;;;;;;9.43;2.10;;;;;;;-146.25;100.00;52339.81;2210920;26;20135;-68
2024/04/14 00:57:07;;;;;;;8.48;1.95;;;;;;;-146.25;100.00;52319.53;2209900;26;33996;-68
2024/04/14 00:58:10;;;;;;;12.70;2.08;;;;;;;-146.25;100.00;52354.00;2224869;26;34576;-67
2024/04/14 00:59:15;;;;;;;10.43;2.60;;;;;;;-146.25;100.00;52356.03;2209792;26;31845;-67
2024/04/14 01:00:21;;;;;;;11.80;1.98;;;;;;;-146.25;100.00;52293.19;2211076;26;20200;-68
2024/04/14 01:01:23;;;;;;;8.32;2.00;;;;;;;-146.25;100.00;52339.81;2209792;26;34882;-68
2024/04/14 01:02:26;;;;;;;10.77;2.17;;;;;;;-146.25;100.00;52343.88;2210936;26;20004;-68
2024/04/14 01:03:30;;;;;;;10.07;2.20;;;;;;;-146.25;100.00;52319.53;2210401;26;20134;-67
2024/04/14 01:04:34;;;;;;;7.90;2.22;;;;;;;-146.25;100.00;52339.81;2210271;26;34501;-68
2024/04/14 01:05:36;;;;;;;10.02;2.33;;;;;;;-146.25;100.00;52335.75;2210099;26;35306;-68
2024/04/14 01:06:38;;;;;;;8.50;2.08;;;;;;;-146.25;100.00;52345.91;2211144;26;33255;-68
2024/04/14 01:07:40;;;;;;;7.93;2.08;;;;;;;-146.25;100.00;52327.66;2209735;26;32650;-65
2024/04/14 01:08:42;;;;;;;12.00;2.22;;;;;;;-146.25;100.00;52339.81;2210309;26;33445;-68
2024/04/14 01:09:44;;;;;;;9.57;2.13;;;;;;;-146.25;100.00;52358.06;2211705;26;20001;-67
2024/04/14 01:10:47;;;;;;;10.65;2.30;;;;;;;-146.25;100.00;52319.53;2211023;26;37187;-68
2024/04/14 01:11:49;;;;;;;11.27;2.67;;;;;;;-146.25;100.00;52345.91;2210662;26;30417;-67
2024/04/14 01:12:51;;;;;;;10.70;2.67;;;;;;;-146.25;100.00;52331.69;2211006;26;32523;-68
2024/04/14 01:13:56;;;;;;;8.40;1.85;;;;;;;-146.25;100.00;52343.88;2211293;26;20012;-68
2024/04/14 01:15:01;;;;;;;8.60;1.40;;;;;;;-146.25;100.00;52341.84;2212146;26;20094;-68
2024/04/14 01:16:04;;;;;;;8.55;1.65;;;;;;;-146.25;100.00;52366.16;2210572;26;33834;-68
2024/04/14 01:17:06;;;;;;;6.18;0.95;;;;;;;-146.25;100.00;52351.97;2211732;26;20116;-68
2024/04/14 01:18:08;;;;;;;6.18;0.85;;;;;;;-146.25;100.00;52321.56;2210626;26;33010;-68
2024/04/14 01:19:12;;;;;;;5.95;1.17;;;;;;;-146.25;100.00;52325.63;2210958;26;35242;-68
2024/04/14 01:20:18;;;;;;;6.72;0.70;;;;;;;-146.25;99.72;52358.06;2211028;26;19997;-68
2024/04/14 01:21:20;;;;;;;11.45;1.00;;;;;;;-146.25;99.68;52339.81;2210990;26;34932;-68
2024/04/14 01:22:24;;;;;;;7.32;1.00;;;;;;;-146.25;99.21;52354.00;2211318;26;21125;-68
2024/04/14 01:23:27;;;;;;;7.57;0.70;;;;;;;-146.25;99.11;52341.84;2211005;26;30365;-67
2024/04/14 01:24:29;;;;;;;6.15;0.88;;;;;;;-146.25;98.98;52317.50;2207281;26;36370;-67
2024/04/14 01:25:31;;;;;;;7.35;0.82;;;;;;;-146.25;98.62;52309.41;2210912;26;28612;-67
2024/04/14 01:26:32;;;;;;;6.22;0.60;;;;;;;-146.25;98.95;52364.13;2208422;26;34153;-69
2024/04/14 01:27:36;;;;;;;6.93;1.00;;;;;;;-146.25;98.51;52343.88;2209872;26;33238;-68
2024/04/14 01:28:38;;;;;;;6.80;0.75;;;;;;;-146.25;98.36;52327.66;2210281;26;34178;-68
2024/04/14 01:29:40;;;;;;;5.50;0.68;;;;;;;-146.25;98.68;52364.13;2210760;26;33662;-68
2024/04/14 01:30:41;;;;;;;8.15;0.90;;;;;;;-146.25;99.13;52366.16;2210669;26;28995;-67
2024/04/14 01:31:44;;;;;;;9.40;1.00;;;;;;;-146.25;99.26;52349.94;2210620;26;31674;-68
2024/04/14 01:32:46;;;;;;;6.70;0.93;;;;;;;-146.25;99.13;52329.66;2210104;26;30644;-68
2024/04/14 01:33:50;;;;;;;11.70;1.30;;;;;;;-146.25;99.38;52358.06;2210642;26;34749;-66
2024/04/14 01:34:52;;;;;;;6.60;0.90;;;;;;;-146.25;99.26;52337.78;2209984;26;35516;-63
2024/04/14 01:35:53;;;;;;;8.38;1.02;;;;;;;-146.25;99.42;52335.75;2211033;26;30611;-68
2024/04/14 01:36:58;;;;;;;9.45;1.10;;;;;;;-146.25;100.00;52329.66;2210736;26;33882;-68
2024/04/14 01:38:02;;;;;;;6.05;0.85;;;;;;;-146.25;99.90;52335.75;2209599;26;30564;-67
2024/04/14 01:39:10;;;;;;;9.48;0.77;;;;;;;-146.25;99.72;52343.88;2211308;26;20020;-67
2024/04/14 01:40:14;;;;;;;8.50;0.93;;;;;;;-146.25;99.64;52364.13;2210709;26;35401;-68
2024/04/14 01:41:16;;;;;;;6.47;0.95;;;;;;;-146.25;99.98;52360.09;2209824;26;32662;-68
2024/04/14 01:42:18;;;;;;;8.95;0.90;;;;;;;-146.25;100.00;52354.00;2209958;26;33897;-68
2024/04/14 01:43:20;;;;;;;7.13;0.68;;;;;;;-146.25;100.00;52307.38;2210402;26;34870;-68
2024/04/14 01:44:24;;;;;;;5.30;0.60;;;;;;;-146.25;99.01;52354.00;2211534;26;20017;-68
2024/04/14 01:45:26;;;;;;;8.23;1.00;;;;;;;-146.25;98.47;52343.88;2210286;26;36691;-68
2024/04/14 01:46:28;;;;;;;7.68;0.63;;;;;;;-146.25;98.85;52339.81;2210817;26;34075;-67
2024/04/14 01:47:29;;;;;;;8.38;0.70;;;;;;;-146.25;99.18;52356.03;2210339;26;35436;-67
2024/04/14 01:48:31;;;;;;;7.10;0.60;;;;;;;-146.25;99.64;52347.91;2210781;26;35433;-67
2024/04/14 01:49:33;;;;;;;8.65;0.75;;;;;;;-146.25;99.33;52327.66;2211146;26;20005;-68
2024/04/14 01:50:37;;;;;;;8.07;0.80;;;;;;;-146.25;98.92;52313.44;2208851;26;35265;-68
2024/04/14 01:51:39;;;;;;;4.68;0.65;;;;;;;-146.25;99.35;52327.66;2210195;26;33789;-68
2024/04/14 01:52:46;;;;;;;7.47;0.80;;;;;;;-146.25;99.55;52356.03;2210839;26;31968;-68
2024/04/14 01:53:51;;;;;;;6.97;0.50;;;;;;;-146.25;99.40;52364.13;2210424;26;36162;-68
2024/04/14 01:54:53;;;;;;;5.90;0.52;;;;;;;-146.25;99.73;52341.84;2211313;26;20009;-68
2024/04/14 01:55:57;;;;;;;3.85;0.68;;;;;;;-146.25;100.00;52339.81;2210289;26;36961;-68
2024/04/14 01:56:59;;;;;;;4.90;0.50;;;;;;;-146.25;99.90;52321.56;2210734;26;32060;-67
2024/04/14 01:58:04;;;;;;;6.05;0.55;;;;;;;-146.25;99.47;52339.81;2210402;26;30922;-67
2024/04/14 01:59:06;;;;;;;11.90;0.80;;;;;;;-146.25;99.00;52362.13;2210440;26;37619;-67
2024/04/14 02:00:08;;;;;;;5.63;0.60;;;;;;;-146.25;99.29;52329.66;2210877;26;28325;-67
2024/04/14 02:01:12;;;;;;;6.47;0.95;;;;;;;-146.25;98.57;52339.81;2210707;26;20012;-67
2024/04/14 02:02:16;;;;;;;7.32;0.85;;;;;;;-146.25;98.39;52319.53;2210398;26;35652;-68
2024/04/14 02:03:18;;;;;;;6.20;0.77;;;;;;;-146.25;98.73;52331.69;2211330;26;20227;-67
2024/04/14 02:04:20;;;;;;;7.55;0.75;;;;;;;-146.25;99.37;52368.19;2210355;26;36595;-68
2024/04/14 02:05:22;;;;;;;7.53;0.57;;;;;;;-146.25;99.62;52329.66;2210347;26;29427;-67
2024/04/14 02:06:24;;;;;;;7.57;0.68;;;;;;;-146.25;99.63;52384.41;2210258;26;20105;-68
2024/04/14 02:07:27;;;;;;;4.95;0.45;;;;;;;-146.25;99.75;52335.75;2204818;26;35232;-68
2024/04/14 02:08:29;;;;;;;6.82;0.82;;;;;;;-146.25;100.00;52319.53;2209708;26;20014;-67
2024/04/14 02:09:33;;;;;;;10.45;0.65;;;;;;;-146.25;100.00;52333.72;2196003;27;20013;-67
2024/04/14 02:10:41;;;;;;;6.28;0.70;;;;;;;-146.25;99.58;52362.13;2195686;27;33426;-68
2024/04/14 02:11:43;;;;;;;6.50;0.50;;;;;;;-146.25;99.30;52351.97;2196163;26;32092;-66
2024/04/14 02:12:48;;;;;;;4.55;0.57;;;;;;;-146.25;99.61;52335.75;2196770;26;20006;-68
2024/04/14 02:13:52;;;;;;;3.40;0.50;;;;;;;-146.25;99.49;52382.38;2196022;26;21041;-68
2024/04/14 02:14:56;;;;;;;6.75;0.50;;;;;;;-146.25;99.90;52347.91;2195298;27;33802;-68
2024/04/14 02:16:00;;;;;;;8.02;0.57;;;;;;;-146.25;99.80;52339.81;2195785;27;31772;-67
2024/04/14 02:17:02;;;;;;;7.20;0.88;;;;;;;-146.25;100.00;52354.00;2195646;27;32058;-68
2024/04/14 02:18:05;;;;;;;4.65;0.73;;;;;;;-146.25;99.51;52351.97;2195306;26;38142;-68
2024/04/14 02:19:07;;;;;;;4.57;0.70;;;;;;;-146.25;99.56;52349.94;2196344;26;20921;-67
2024/04/14 02:20:12;;;;;;;7.00;0.70;;;;;;;-146.25;99.94;52341.84;2195654;26;35499;-68
2024/04/14 02:21:14;;;;;;;4.47;0.57;;;;;;;-146.25;100.00;52382.38;2195573;26;32178;-68
2024/04/14 02:22:16;;;;;;;4.75;0.50;;;;;;;-146.25;100.00;52339.81;2195031;27;31635;-67
2024/04/14 02:23:19;;;;;;;6.15;0.45;;;;;;;-146.25;100.00;52331.69;2196064;27;37365;-68
2024/04/14 02:24:29;;;;;;;7.30;0.65;;;;;;;-146.25;100.00;52325.63;2196056;27;32369;-68
2024/04/14 02:25:31;;;;;;;8.98;1.00;;;;;;;-146.25;100.00;52345.91;2196380;26;29619;-68
2024/04/14 02:26:33;;;;;;;7.40;0.70;;;;;;;-146.25;100.00;52347.91;2195852;26;35401;-68
2024/04/14 02:27:34;;;;;;;6.45;0.50;;;;;;;-146.25;100.00;52343.88;2196273;27;31838;-68
2024/04/14 02:28:36;;;;;;;7.30;0.77;;;;;;;-146.25;100.00;52360.09;2195851;27;33405;-68
2024/04/14 02:29:41;;;;;;;6.40;0.47;;;;;;;-146.25;100.00;52362.13;2196845;26;33271;-68
2024/04/14 02:30:42;;;;;;;5.50;0.60;;;;;;;-146.25;100.00;52390.50;2196509;27;21116;-67
2024/04/14 02:31:46;;;;;;;5.05;0.75;;;;;;;-146.25;100.00;52351.97;2196394;26;28804;-68
2024/04/14 02:32:48;;;;;;;3.85;0.57;;;;;;;-146.25;100.00;52331.69;2195813;26;32719;-67
2024/04/14 02:33:51;;;;;;;8.18;0.60;;;;;;;-146.25;100.00;52380.38;2196216;27;33476;-68
2024/04/14 02:34:55;;;;;;;9.25;1.00;;;;;;;-146.25;100.00;52368.19;2195861;27;34047;-68
2024/04/14 02:36:01;;;;;;;5.97;0.68;;;;;;;-146.25;100.00;52376.31;2196814;26;20006;-68
2024/04/14 02:37:07;;;;;;;7.50;0.73;;;;;;;-146.25;100.00;52335.75;2195750;27;35771;-68
2024/04/14 02:38:08;;;;;;;6.47;0.60;;;;;;;-146.25;100.00;52374.28;2208786;26;20994;-67
2024/04/14 02:39:12;;;;;;;4.40;0.63;;;;;;;-146.25;100.00;52347.91;2209796;26;36854;-67
2024/04/14 02:40:14;;;;;;;7.60;0.75;;;;;;;-146.25;100.00;52358.06;2224096;26;31504;-68
2024/04/14 02:41:16;;;;;;;5.70;0.45;;;;;;;-146.25;100.00;52331.69;2223347;26;34646;-68
2024/04/14 02:42:17;;;;;;;9.88;0.93;;;;;;;-146.25;100.00;52362.13;2210423;26;32867;-68
2024/04/14 02:43:19;;;;;;;7.65;0.60;;;;;;;-146.25;100.00;52341.84;2210101;26;28231;-68
2024/04/14 02:44:21;;;;;;;4.43;0.65;;;;;;;-146.25;100.00;52287.09;2210850;26;32188;-68
2024/04/14 02:45:29;;;;;;;10.00;1.15;;;;;;;-146.25;100.00;52356.03;2210545;26;20013;-68
2024/04/14 02:46:31;;;;;;;7.75;0.90;;;;;;;-146.25;100.00;52354.00;2209089;26;29646;-68
2024/04/14 02:47:33;;;;;;;11.68;1.02;;;;;;;-146.25;100.00;52368.19;2208845;26;35950;-68
2024/04/14 02:48:36;;;;;;;8.15;1.10;;;;;;;-146.25;100.00;52307.38;2210210;26;20001;-68
2024/04/14 02:49:38;;;;;;;11.57;0.90;;;;;;;-146.25;100.00;52388.47;2209845;26;33885;-68
2024/04/14 02:50:39;;;;;;;10.23;0.90;;;;;;;-146.25;100.00;52360.09;2210105;26;36200;-68
2024/04/14 02:51:43;;;;;;;17.95;1.20;;;;;;;-146.25;100.00;52339.81;2210420;26;20029;-67
2024/04/14 02:52:45;;;;;;;9.00;1.25;;;;;;;-146.25;100.00;52362.13;2210032;26;33333;-68
2024/04/14 02:53:47;;;;;;;9.27;1.23;;;;;;;-146.25;100.00;52354.00;2209843;26;32913;-67
2024/04/14 02:54:49;;;;;;;7.32;1.17;;;;;;;-146.25;100.00;52368.19;2210788;26;20009;-68
2024/04/14 02:55:51;;;;;;;8.18;1.05;;;;;;;-146.25;100.00;52368.19;2209649;26;37420;-67
2024/04/14 02:56:58;;;;;;;8.98;0.93;;;;;;;-146.25;100.00;52356.03;2210933;26;20921;-68
2024/04/14 02:58:01;;;;;;;6.55;0.73;;;;;;;-146.25;100.00;52372.25;2209859;26;33508;-68
2024/04/14 02:59:03;;;;;;;10.20;0.93;;;;;;;-146.25;100.00;52351.97;2210361;26;33043;-68
2024/04/14 03:00:06;;;;;;;12.98;1.45;;;;;;;-146.25;100.00;52349.94;2210070;26;20045;-68
2024/04/14 03:01:13;;;;;;;9.10;0.90;;;;;;;-146.25;100.00;52392.53;2209552;26;35592;-67
2024/04/14 03:02:15;;;;;;;8.40;1.02;;;;;;;-146.25;100.00;52368.19;2210314;26;27909;-69
2024/04/14 03:03:17;;;;;;;9.88;1.00;;;;;;;-146.25;100.00;52354.00;2211007;26;33345;-68
2024/04/14 03:04:19;;;;;;;12.25;1.92;;;;;;;-146.25;100.00;52368.19;2211231;26;30111;-67
2024/04/14 03:05:24;;;;;;;10.18;1.00;;;;;;;-146.25;100.00;52303.31;2212307;26;20044;-67
2024/04/14 03:06:26;;;;;;;11.90;1.27;;;;;;;-146.25;100.00;52368.19;2211030;26;36021;-67
2024/04/14 03:07:30;;;;;;;8.75;1.00;;;;;;;-146.25;100.00;52364.13;2211988;26;26976;-67
2024/04/14 03:08:32;;;;;;;12.82;1.02;;;;;;;-146.25;100.00;52374.28;2210915;26;20012;-67
2024/04/14 03:09:36;;;;;;;11.40;1.10;;;;;;;-146.25;100.00;52343.88;2210765;26;33043;-68
2024/04/14 03:10:38;;;;;;;9.52;0.73;;;;;;;-146.25;100.00;52356.03;2210465;26;31017;-67
2024/04/14 03:11:40;;;;;;;11.88;1.30;;;;;;;-146.25;100.00;52368.19;2211626;26;31860;-68
2024/04/14 03:12:42;;;;;;;7.55;0.57;;;;;;;-146.25;100.00;52347.91;2211119;26;35583;-68
2024/04/14 03:13:46;;;;;;;8.07;0.70;;;;;;;-146.25;100.00;52345.91;2211886;26;32122;-68
2024/04/14 03:14:48;;;;;;;5.47;0.88;;;;;;;-146.25;100.00;52378.34;2210936;26;36413;-67
2024/04/14 03:15:52;;;;;;;6.40;0.80;;;;;;;-146.25;100.00;52347.91;2211673;26;34737;-67
2024/04/14 03:16:54;;;;;;;10.80;0.82;;;;;;;-146.25;100.00;52343.88;2210796;26;20128;-68
2024/04/14 03:17:56;;;;;;;7.00;0.88;;;;;;;-146.25;100.00;52370.22;2210856;26;33631;-68
2024/04/14 03:18:57;;;;;;;7.78;0.93;;;;;;;-146.25;100.00;52343.88;2211317;26;33879;-68
2024/04/14 03:20:00;;;;;;;8.60;0.82;;;;;;;-146.25;100.00;52345.91;2211559;26;33375;-68
2024/04/14 03:21:03;;;;;;;7.35;0.73;;;;;;;-146.25;100.00;52343.88;2211151;26;31706;-69
2024/04/14 03:22:08;;;;;;;6.30;0.68;;;;;;;-146.25;100.00;52347.91;2212199;26;20009;-68
2024/04/14 03:23:10;;;;;;;9.25;0.85;;;;;;;-146.25;100.00;52370.22;2211008;26;37975;-68
2024/04/14 03:24:12;;;;;;;6.85;0.75;;;;;;;-146.25;100.00;52347.91;2211693;26;32740;-68
2024/04/14 03:25:14;;;;;;;8.48;0.80;;;;;;;-146.25;100.00;52388.47;2211064;26;32134;-68
2024/04/14 03:26:18;;;;;;;8.50;0.75;;;;;;;-146.25;100.00;52360.09;2211705;26;30712;-68
2024/04/14 03:27:20;;;;;;;8.23;1.00;;;;;;;-146.25;100.00;52374.28;2211138;26;32210;-68
2024/04/14 03:28:24;;;;;;;15.10;1.00;;;;;;;-146.25;100.00;52374.28;2211560;26;35490;-68
2024/04/14 03:29:26;;;;;;;8.82;0.88;;;;;;;-146.25;100.00;52364.13;2212018;26;20035;-68
2024/04/14 03:30:30;;;;;;;11.38;1.05;;;;;;;-146.25;100.00;52356.03;2211440;26;37788;-67
2024/04/14 03:31:32;;;;;;;7.15;0.80;;;;;;;-146.25;100.00;52343.88;2211150;26;32925;-68
2024/04/14 03:32:34;;;;;;;7.85;0.95;;;;;;;-146.25;100.00;52356.03;2211461;26;33194;-68
2024/04/14 03:33:38;;;;;;;6.63;0.80;;;;;;;-146.25;100.00;52347.91;2211642;26;20994;-68
2024/04/14 03:34:42;;;;;;;9.45;0.63;;;;;;;-146.25;100.00;52343.88;2211394;26;20009;-68
2024/04/14 03:35:45;;;;;;;8.80;0.85;;;;;;;-146.25;100.00;52388.47;2210134;26;32381;-68
2024/04/14 03:36:47;;;;;;;10.23;0.73;;;;;;;-146.25;100.00;52351.97;2211571;26;33219;-69
2024/04/14 03:37:49;;;;;;;7.72;0.80;;;;;;;-146.25;100.00;52376.31;2210550;26;34039;-68
2024/04/14 03:38:51;;;;;;;5.43;0.45;;;;;;;-146.25;100.00;52388.47;2211578;26;32601;-67
2024/04/14 03:39:54;;;;;;;6.80;0.70;;;;;;;-146.25;100.00;52368.19;2211019;26;31413;-68
2024/04/14 03:40:56;;;;;;;8.80;0.90;;;;;;;-146.25;100.00;52333.72;2210557;26;35643;-68
2024/04/14 03:41:58;;;;;;;9.68;0.80;;;;;;;-146.25;100.00;52356.03;2210978;26;20125;-68
2024/04/14 03:43:00;;;;;;;6.20;0.55;;;;;;;-146.25;100.00;52372.25;2212045;26;20030;-68
2024/04/14 03:44:04;;;;;;;8.50;0.60;;;;;;;-146.25;100.00;52360.09;2211029;26;35393;-68
2024/04/14 03:45:07;;;;;;;12.13;1.02;;;;;;;-146.25;100.00;52337.78;2212072;26;20108;-68
2024/04/14 03:46:10;;;;;;;9.82;0.70;;;;;;;-146.25;100.00;52392.53;2210851;26;37865;-68
2024/04/14 03:47:12;;;;;;;5.13;0.65;;;;;;;-146.25;100.00;52388.47;2211460;26;34913;-68
2024/04/14 03:48:13;;;;;;;8.68;0.70;;;;;;;-146.25;100.00;52335.75;2211016;26;32651;-68
2024/04/14 03:49:15;;;;;;;8.90;0.63;;;;;;;-146.25;100.00;52374.28;2212451;26;21142;-68
2024/04/14 03:50:20;;;;;;;7.47;0.60;;;;;;;-146.25;100.00;52323.59;2210980;26;32662;-68
2024/04/14 03:51:22;;;;;;;8.05;0.90;;;;;;;-146.25;100.00;52362.13;2210773;26;37437;-68
2024/04/14 03:52:24;;;;;;;10.40;1.05;;;;;;;-146.25;100.00;52392.53;2209889;26;33794;-68
2024/04/14 03:53:27;;;;;;;10.77;1.08;;;;;;;-146.25;100.00;52354.00;2212132;26;20073;-69
2024/04/14 03:54:29;;;;;;;8.65;0.52;;;;;;;-146.25;100.00;52376.31;2211203;26;29007;-68
2024/04/14 03:55:34;;;;;;;13.15;0.85;;;;;;;-146.25;100.00;52378.34;2211328;26;37059;-68
2024/04/14 03:56:35;;;;;;;9.35;0.68;;;;;;;-146.25;100.00;52380.38;2211040;26;32847;-68
2024/04/14 03:57:37;;;;;;;9.25;0.80;;;;;;;-146.25;100.00;52360.09;2211309;26;33755;-68
2024/04/14 03:58:39;;;;;;;7.93;0.93;;;;;;;-146.25;100.00;52358.06;2211080;26;32674;-68
2024/04/14 03:59:44;;;;;;;11.00;1.05;;;;;;;-146.25;100.00;52347.91;2211281;26;34120;-68
2024/04/14 04:00:47;;;;;;;8.20;0.90;;;;;;;-146.25;100.00;52341.84;2210926;26;20080;-68
2024/04/14 04:01:52;;;;;;;10.98;0.90;;;;;;;-146.25;100.00;52372.25;2210738;26;33006;-67
2024/04/14 04:02:54;;;;;;;10.20;1.05;;;;;;;-146.25;100.00;52360.09;2210114;26;33725;-68
2024/04/14 04:03:57;;;;;;;5.70;0.77;;;;;;;-146.25;100.00;52364.13;2210500;26;34953;-68
2024/04/14 04:04:59;;;;;;;11.00;0.88;;;;;;;-146.25;100.00;52364.13;2211477;26;19997;-68
2024/04/14 04:06:03;;;;;;;9.77;0.68;;;;;;;-146.25;100.00;52349.94;2211268;26;37004;-68
2024/04/14 04:07:05;;;;;;;10.93;1.25;;;;;;;-146.25;100.00;52388.47;2211100;26;30844;-68
2024/04/14 04:08:06;;;;;;;7.47;0.50;;;;;;;-146.25;100.00;52341.84;2211011;26;33355;-68
2024/04/14 04:09:09;;;;;;;9.13;0.55;;;;;;;-146.25;100.00;52323.59;2210133;26;35176;-68
2024/04/14 04:10:11;;;;;;;10.88;0.65;;;;;;;-146.25;100.00;52362.13;2211177;26;20009;-68
2024/04/14 04:11:13;;;;;;;7.78;0.65;;;;;;;-146.25;100.00;52360.09;2211198;26;35076;-68
2024/04/14 04:12:14;;;;;;;10.63;1.02;;;;;;;-146.25;100.00;52372.25;2210609;26;32865;-68
2024/04/14 04:13:19;;;;;;;10.00;0.90;;;;;;;-146.25;100.00;52347.91;2209557;26;31959;-68
2024/04/14 04:14:21;;;;;;;11.05;0.98;;;;;;;-146.25;100.00;52366.16;2211010;26;34751;-68
2024/04/14 04:15:22;;;;;;;10.32;0.93;;;;;;;-146.25;100.00;52362.13;2211585;26;20115;-68
2024/04/14 04:16:24;;;;;;;6.43;0.73;;;;;;;-146.25;100.00;52341.84;2211301;26;36734;-67
2024/04/14 04:17:26;;;;;;;10.32;1.05;;;;;;;-146.25;100.00;52380.38;2211022;26;28790;-68
2024/04/14 04:18:28;;;;;;;9.75;1.10;;;;;;;-146.25;100.00;52364.13;2211312;26;28832;-67
2024/04/14 04:19:30;;;;;;;10.38;0.77;;;;;;;-146.25;100.00;52351.97;2210786;26;35618;-68
2024/04/14 04:20:32;;;;;;;8.82;0.82;;;;;;;-146.25;100.00;52400.63;2211962;26;20052;-68
2024/04/14 04:21:34;;;;;;;6.63;0.60;;;;;;;-146.25;100.00;52372.25;2210583;26;36049;-68
2024/04/14 04:22:36;;;;;;;10.13;0.88;;;;;;;-146.25;100.00;52354.00;2210313;26;28359;-68
2024/04/14 04:23:38;;;;;;;11.50;1.02;;;;;;;-146.25;100.00;52394.56;2210055;26;32427;-68
2024/04/14 04:24:40;;;;;;;8.65;1.13;;;;;;;-146.25;100.00;52370.22;2211452;26;30667;-68
2024/04/14 04:25:42;;;;;;;7.28;0.90;;;;;;;-146.25;100.00;52341.84;2210845;26;35167;-68
2024/04/14 04:26:43;;;;;;;9.65;0.95;;;;;;;-146.25;100.00;52388.47;2211242;26;35522;-67
2024/04/14 04:27:45;;;;;;;9.23;0.90;;;;;;;-146.25;100.00;52376.31;2210810;26;34321;-68
2024/04/14 04:28:47;;;;;;;11.45;0.90;;;;;;;-146.25;100.00;52376.31;2211374;26;29883;-68
2024/04/14 04:29:49;;;;;;;12.35;1.00;;;;;;;-146.25;100.00;52370.22;2210801;26;34972;-67
2024/04/14 04:30:55;;;;;;;11.50;0.98;;;;;;;-146.25;100.00;52366.16;2211334;26;31036;-67
2024/04/14 04:31:57;;;;;;;10.27;1.38;;;;;;;-146.25;100.00;52382.38;2210886;26;35709;-68
2024/04/14 04:32:59;;;;;;;8.52;0.70;;;;;;;-146.25;100.00;52347.91;2210528;26;31208;-68
2024/04/14 04:34:01;;;;;;;6.65;0.82;;;;;;;-146.25;100.00;52358.06;2210026;26;30345;-68
2024/04/14 04:35:03;;;;;;;13.32;1.20;;;;;;;-146.25;100.00;52360.09;2210185;26;34636;-68
2024/04/14 04:36:05;;;;;;;9.35;0.93;;;;;;;-146.25;100.00;52388.47;2210372;26;35606;-68
2024/04/14 04:37:07;;;;;;;14.77;1.10;;;;;;;-146.25;100.00;52351.97;2211181;26;33256;-68
2024/04/14 04:38:09;;;;;;;11.43;1.00;;;;;;;-146.25;100.00;52376.31;2210572;26;33791;-66
2024/04/14 04:39:11;;;;;;;12.00;1.30;;;;;;;-146.25;100.00;52319.53;2211047;26;36050;-64
2024/04/14 04:40:13;;;;;;;10.45;0.88;;;;;;;-146.25;100.00;52349.94;2210800;26;35035;-68
2024/04/14 04:41:15;;;;;;;10.93;1.23;;;;;;;-146.25;100.00;52349.94;2211325;26;32693;-68
2024/04/14 04:42:16;;;;;;;11.25;0.98;;;;;;;-146.25;100.00;52368.19;2210586;26;36046;-67
2024/04/14 04:43:22;;;;;;;11.32;0.82;;;;;;;-146.25;100.00;52343.88;2211291;26;33983;-67
2024/04/14 04:44:24;;;;;;;8.52;1.05;;;;;;;-146.25;100.00;52386.44;2210683;26;35320;-69
2024/04/14 04:45:26;;;;;;;13.02;0.95;;;;;;;-146.25;100.00;52366.16;2211335;26;26868;-68